Winchester, Texas
Current Conditions -  °F | °C
As of 4:35 PM on Sunday 23 Nov 2014 (Local Time) from K3T5 Reporting Station
Clear Clear  
Wind Chill: 26°   Ceiling: Unl
Heat Index: 26°   Visibility: 10mi
Dew Point:   Wind: 8mph
Humidity: 34%   Direction: 230°SW
Pressure: 29.53"   Gusts: NA
Location:  29.8569°N, 96.9311°W
Report Text: K3T5 232235Z AUTO 23007KT 10SM CLR 27/09 A2953 RMK AO2 T02650093
Loading
Personal Weather Stations






























Interactive Weather Map New forecast layout! Learn more

10-Day Weather Forecast

Advertisements
Track Severe Weather on mobile